RYR84KM EGGW-LEMI
Flight info
| Callsign | RYR84KM |
|---|---|
| Flight time | 2h 9m |
| Altitude | 33000 |
| Route | RODNI N27 ICTAM Q63 CPT N859 VAPID UN859 SOPIL DCT BALAN DCT LMG DCT PIMQO DCT AGN DCT ANETO DCT POSSY DCT XIMPE DCT RIMES N860 VLC L34 ALT |
| Aircraft | B738/M-SDE2E3FGHIRWXY/LB1 |
Departure
| Time | 2026-04-15 07:28 |
|---|---|
| Airport | London Luton Airport (EGGW) |
Arrival
| Time | 2026-04-15 09:37 |
|---|---|
| Airport | Region of Murcia International Airport (LEMI) |
| Time | Latitude | Longitude | Altitude | Speed | Heading |
|---|---|---|---|---|---|
| 2026-04-15 07:06 | 51.88021 | -0.37830 | 522 ft | 0 kts | 128° |
| 2026-04-15 07:20 | 51.88021 | -0.37832 | 522 ft | 2 kts | 128° |
| 2026-04-15 07:21 | 51.88035 | -0.37865 | 522 ft | 4 kts | 111° |
| 2026-04-15 07:21 | 51.88039 | -0.37903 | 522 ft | 4 kts | 61° |
| 2026-04-15 07:21 | 51.88033 | -0.37916 | 522 ft | 0 kts | 41° |
| 2026-04-15 07:23 | 51.88036 | -0.37912 | 522 ft | 4 kts | 41° |
| 2026-04-15 07:23 | 51.88093 | -0.37842 | 522 ft | 17 kts | 39° |
| 2026-04-15 07:23 | 51.88173 | -0.37685 | 522 ft | 19 kts | 61° |
| 2026-04-15 07:24 | 51.88208 | -0.37455 | 515 ft | 22 kts | 86° |
| 2026-04-15 07:24 | 51.88212 | -0.37232 | 516 ft | 21 kts | 152° |
| 2026-04-15 07:24 | 51.88064 | -0.37157 | 507 ft | 23 kts | 162° |
| 2026-04-15 07:24 | 51.87913 | -0.37075 | 508 ft | 23 kts | 161° |
| 2026-04-15 07:25 | 51.87765 | -0.37000 | 516 ft | 22 kts | 163° |
| 2026-04-15 07:25 | 51.87651 | -0.36897 | 524 ft | 19 kts | 101° |
| 2026-04-15 07:25 | 51.87677 | -0.36694 | 521 ft | 19 kts | 74° |
| 2026-04-15 07:25 | 51.87712 | -0.36496 | 519 ft | 18 kts | 74° |
| 2026-04-15 07:26 | 51.87744 | -0.36304 | 517 ft | 17 kts | 75° |
| 2026-04-15 07:26 | 51.87775 | -0.36118 | 517 ft | 17 kts | 75° |
| 2026-04-15 07:26 | 51.87748 | -0.35954 | 515 ft | 16 kts | 156° |
| 2026-04-15 07:26 | 51.87642 | -0.35911 | 515 ft | 16 kts | 201° |
| 2026-04-15 07:27 | 51.87594 | -0.36064 | 515 ft | 19 kts | 253° |
| 2026-04-15 07:27 | 51.87509 | -0.36578 | 525 ft | 84 kts | 254° |
| 2026-04-15 07:27 | 51.87286 | -0.37863 | 527 ft | 150 kts | 253° |
| 2026-04-15 07:27 | 51.86984 | -0.39634 | 1011 ft | 171 kts | 250° |
| 2026-04-15 07:28 | 51.86494 | -0.41266 | 1978 ft | 158 kts | 219° |
| 2026-04-15 07:28 | 51.85552 | -0.42183 | 2741 ft | 162 kts | 209° |
| 2026-04-15 07:28 | 51.84498 | -0.43143 | 3158 ft | 188 kts | 211° |
| 2026-04-15 07:28 | 51.83302 | -0.44298 | 3430 ft | 210 kts | 211° |
| 2026-04-15 07:29 | 51.82004 | -0.45634 | 3714 ft | 232 kts | 220° |
| 2026-04-15 07:29 | 51.81114 | -0.47864 | 4341 ft | 245 kts | 247° |
| 2026-04-15 07:29 | 51.80765 | -0.49638 | 4777 ft | 245 kts | 252° |
| 2026-04-15 07:29 | 51.80332 | -0.52334 | 5583 ft | 251 kts | 252° |
| 2026-04-15 07:30 | 51.79898 | -0.55081 | 6460 ft | 254 kts | 252° |
| 2026-04-15 07:30 | 51.79450 | -0.57857 | 7307 ft | 257 kts | 251° |
| 2026-04-15 07:30 | 51.78999 | -0.60664 | 8134 ft | 260 kts | 251° |
| 2026-04-15 07:30 | 51.78543 | -0.63468 | 8974 ft | 263 kts | 251° |
| 2026-04-15 07:31 | 51.78071 | -0.66346 | 9808 ft | 266 kts | 251° |
| 2026-04-15 07:31 | 51.77592 | -0.69254 | 10559 ft | 270 kts | 251° |
| 2026-04-15 07:31 | 51.77107 | -0.72192 | 11345 ft | 272 kts | 251° |
| 2026-04-15 07:31 | 51.76618 | -0.75141 | 12149 ft | 273 kts | 251° |
| 2026-04-15 07:32 | 51.76079 | -0.78102 | 12917 ft | 275 kts | 244° |
| 2026-04-15 07:32 | 51.75090 | -0.80538 | 13639 ft | 275 kts | 228° |
| 2026-04-15 07:32 | 51.73756 | -0.82776 | 14346 ft | 278 kts | 224° |
| 2026-04-15 07:32 | 51.72366 | -0.84977 | 15025 ft | 282 kts | 224° |
| 2026-04-15 07:33 | 51.70957 | -0.87197 | 15725 ft | 284 kts | 224° |
| 2026-04-15 07:33 | 51.69540 | -0.89443 | 16406 ft | 288 kts | 224° |
| 2026-04-15 07:33 | 51.68109 | -0.91726 | 17079 ft | 291 kts | 224° |
| 2026-04-15 07:33 | 51.66665 | -0.94040 | 17756 ft | 294 kts | 224° |
| 2026-04-15 07:34 | 51.65206 | -0.96378 | 18433 ft | 297 kts | 224° |
| 2026-04-15 07:34 | 51.63743 | -0.98721 | 19149 ft | 296 kts | 223° |
| 2026-04-15 07:34 | 51.62278 | -1.01065 | 19769 ft | 298 kts | 223° |
| 2026-04-15 07:34 | 51.60799 | -1.03429 | 20362 ft | 301 kts | 223° |
| 2026-04-15 07:35 | 51.59306 | -1.05813 | 20960 ft | 304 kts | 223° |
| 2026-04-15 07:35 | 51.57800 | -1.08217 | 21563 ft | 306 kts | 223° |
| 2026-04-15 07:35 | 51.56282 | -1.10638 | 22154 ft | 309 kts | 223° |
| 2026-04-15 07:35 | 51.54750 | -1.13078 | 22748 ft | 311 kts | 223° |
| 2026-04-15 07:36 | 51.53205 | -1.15535 | 23318 ft | 314 kts | 223° |
| 2026-04-15 07:36 | 51.51553 | -1.17836 | 23809 ft | 316 kts | 211° |
| 2026-04-15 07:36 | 51.49538 | -1.19278 | 24300 ft | 319 kts | 199° |
| 2026-04-15 07:36 | 51.47366 | -1.20066 | 24800 ft | 323 kts | 191° |
| 2026-04-15 07:37 | 51.45115 | -1.20377 | 25268 ft | 327 kts | 184° |
| 2026-04-15 07:37 | 51.42822 | -1.20059 | 25711 ft | 336 kts | 171° |
| 2026-04-15 07:37 | 51.40632 | -1.18580 | 26156 ft | 350 kts | 154° |
| 2026-04-15 07:37 | 51.38563 | -1.16534 | 26690 ft | 349 kts | 155° |
| 2026-04-15 07:38 | 51.36564 | -1.14259 | 27213 ft | 354 kts | 149° |
| 2026-04-15 07:38 | 51.34620 | -1.11941 | 27597 ft | 356 kts | 153° |
| 2026-04-15 07:38 | 51.32479 | -1.09853 | 27653 ft | 365 kts | 158° |
| 2026-04-15 07:38 | 51.30188 | -1.07996 | 27733 ft | 374 kts | 161° |
| 2026-04-15 07:39 | 51.27796 | -1.06231 | 27814 ft | 385 kts | 161° |
| 2026-04-15 07:39 | 51.25322 | -1.04448 | 27885 ft | 395 kts | 161° |
| 2026-04-15 07:39 | 51.22785 | -1.02623 | 27958 ft | 405 kts | 161° |
| 2026-04-15 07:39 | 51.20186 | -1.00742 | 28044 ft | 415 kts | 161° |
| 2026-04-15 07:40 | 51.17535 | -0.98816 | 28185 ft | 421 kts | 161° |
| 2026-04-15 07:40 | 51.14864 | -0.96870 | 28545 ft | 423 kts | 161° |
| 2026-04-15 07:40 | 51.12188 | -0.94920 | 28949 ft | 423 kts | 161° |
| 2026-04-15 07:40 | 51.09495 | -0.92964 | 29153 ft | 428 kts | 161° |
| 2026-04-15 07:41 | 51.06768 | -0.90987 | 29366 ft | 433 kts | 161° |
| 2026-04-15 07:41 | 51.04022 | -0.89000 | 29692 ft | 434 kts | 161° |
| 2026-04-15 07:41 | 51.01269 | -0.87009 | 30058 ft | 435 kts | 161° |
| 2026-04-15 07:41 | 50.98506 | -0.85014 | 30344 ft | 437 kts | 161° |
| 2026-04-15 07:42 | 50.95736 | -0.83016 | 30625 ft | 438 kts | 161° |
| 2026-04-15 07:42 | 50.92966 | -0.81021 | 30986 ft | 436 kts | 161° |
| 2026-04-15 07:42 | 50.90208 | -0.79036 | 31357 ft | 435 kts | 161° |
| 2026-04-15 07:42 | 50.87454 | -0.77059 | 31686 ft | 435 kts | 161° |
| 2026-04-15 07:43 | 50.84719 | -0.74977 | 31936 ft | 439 kts | 156° |
| 2026-04-15 07:43 | 50.82100 | -0.72434 | 32235 ft | 442 kts | 153° |
| 2026-04-15 07:43 | 50.79528 | -0.69780 | 32589 ft | 441 kts | 152° |
| 2026-04-15 07:43 | 50.76969 | -0.67107 | 32931 ft | 440 kts | 153° |
| 2026-04-15 07:44 | 50.74411 | -0.64444 | 33219 ft | 440 kts | 153° |
| 2026-04-15 07:44 | 50.71848 | -0.61799 | 33513 ft | 440 kts | 153° |
| 2026-04-15 07:44 | 50.69281 | -0.59172 | 33823 ft | 439 kts | 153° |
| 2026-04-15 07:44 | 50.66715 | -0.56562 | 34122 ft | 439 kts | 153° |
| 2026-04-15 07:45 | 50.64150 | -0.53966 | 34352 ft | 438 kts | 153° |
| 2026-04-15 07:45 | 50.61580 | -0.51373 | 34560 ft | 440 kts | 153° |
| 2026-04-15 07:45 | 50.59002 | -0.48775 | 34783 ft | 439 kts | 153° |
| 2026-04-15 07:45 | 50.56431 | -0.46187 | 35071 ft | 438 kts | 154° |
| 2026-04-15 07:46 | 50.53870 | -0.43611 | 35349 ft | 437 kts | 154° |
| 2026-04-15 07:46 | 50.51346 | -0.41076 | 35589 ft | 436 kts | 154° |
| 2026-04-15 07:46 | 50.48789 | -0.38512 | 35799 ft | 436 kts | 154° |
| 2026-04-15 07:46 | 50.46233 | -0.35951 | 36050 ft | 435 kts | 154° |
| 2026-04-15 07:47 | 50.43644 | -0.33361 | 36300 ft | 435 kts | 154° |
| 2026-04-15 07:47 | 50.41133 | -0.30852 | 36496 ft | 434 kts | 154° |
| 2026-04-15 07:47 | 50.38578 | -0.28303 | 36635 ft | 436 kts | 154° |
| 2026-04-15 07:47 | 50.35981 | -0.25717 | 36828 ft | 436 kts | 154° |
| 2026-04-15 07:48 | 50.33426 | -0.23172 | 37091 ft | 434 kts | 154° |
| 2026-04-15 07:48 | 50.30914 | -0.20674 | 37351 ft | 433 kts | 154° |
| 2026-04-15 07:48 | 50.28374 | -0.18151 | 37536 ft | 433 kts | 154° |
| 2026-04-15 07:48 | 50.25827 | -0.15626 | 37705 ft | 433 kts | 154° |
| 2026-04-15 07:49 | 50.23281 | -0.13105 | 37912 ft | 433 kts | 154° |
| 2026-04-15 07:49 | 50.20742 | -0.10592 | 38127 ft | 432 kts | 154° |
| 2026-04-15 07:49 | 50.18204 | -0.08084 | 38269 ft | 432 kts | 154° |
| 2026-04-15 07:49 | 50.15658 | -0.05573 | 38365 ft | 434 kts | 154° |
| 2026-04-15 07:50 | 50.13106 | -0.03059 | 38536 ft | 434 kts | 154° |
| 2026-04-15 07:50 | 50.10517 | -0.00697 | 38734 ft | 427 kts | 160° |
| 2026-04-15 07:50 | 50.07774 | 0.01021 | 38734 ft | 423 kts | 171° |
| 2026-04-15 07:50 | 50.04926 | 0.02145 | 38795 ft | 423 kts | 172° |
| 2026-04-15 07:51 | 49.99198 | 0.04304 | 39009 ft | 424 kts | 172° |
| 2026-04-15 07:51 | 49.93461 | 0.06514 | 39119 ft | 426 kts | 171° |
| 2026-04-15 07:52 | 49.87689 | 0.08771 | 39130 ft | 429 kts | 171° |
| 2026-04-15 07:52 | 49.81894 | 0.11043 | 39135 ft | 430 kts | 171° |
| 2026-04-15 07:53 | 49.76078 | 0.13316 | 39133 ft | 431 kts | 171° |
| 2026-04-15 07:53 | 49.70253 | 0.15586 | 39126 ft | 432 kts | 171° |
| 2026-04-15 07:54 | 49.64428 | 0.17884 | 39135 ft | 432 kts | 171° |
| 2026-04-15 07:54 | 49.58607 | 0.20240 | 39127 ft | 432 kts | 171° |
| 2026-04-15 07:55 | 49.52797 | 0.22587 | 39132 ft | 431 kts | 171° |
| 2026-04-15 07:56 | 49.44116 | 0.26069 | 39123 ft | 429 kts | 171° |
| 2026-04-15 07:56 | 49.38353 | 0.28371 | 39134 ft | 427 kts | 171° |
| 2026-04-15 07:57 | 49.32601 | 0.30664 | 39130 ft | 427 kts | 171° |
| 2026-04-15 07:57 | 49.26865 | 0.33007 | 39128 ft | 427 kts | 170° |
| 2026-04-15 07:58 | 49.21137 | 0.35440 | 39166 ft | 427 kts | 170° |
| 2026-04-15 07:58 | 49.15396 | 0.37871 | 39148 ft | 428 kts | 170° |
| 2026-04-15 07:59 | 49.09684 | 0.40273 | 39162 ft | 429 kts | 170° |
| 2026-04-15 07:59 | 49.03923 | 0.42684 | 39155 ft | 430 kts | 170° |
| 2026-04-15 08:00 | 48.98152 | 0.45098 | 39144 ft | 431 kts | 169° |
| 2026-04-15 08:00 | 48.92360 | 0.47509 | 39155 ft | 433 kts | 169° |
| 2026-04-15 08:01 | 48.86538 | 0.49926 | 39168 ft | 435 kts | 169° |
| 2026-04-15 08:01 | 48.80683 | 0.52354 | 39172 ft | 437 kts | 169° |
| 2026-04-15 08:02 | 48.74791 | 0.54736 | 39177 ft | 439 kts | 170° |
| 2026-04-15 08:02 | 48.68862 | 0.57040 | 39183 ft | 441 kts | 170° |
| 2026-04-15 08:03 | 48.62907 | 0.59358 | 39168 ft | 443 kts | 170° |
| 2026-04-15 08:03 | 48.56942 | 0.61688 | 39179 ft | 443 kts | 170° |
| 2026-04-15 08:04 | 48.50973 | 0.64019 | 39181 ft | 443 kts | 170° |
| 2026-04-15 08:04 | 48.45016 | 0.66437 | 39183 ft | 443 kts | 169° |
| 2026-04-15 08:05 | 48.39076 | 0.68868 | 39181 ft | 442 kts | 169° |
| 2026-04-15 08:05 | 48.33145 | 0.71277 | 39185 ft | 441 kts | 170° |
| 2026-04-15 08:06 | 48.27226 | 0.73669 | 39186 ft | 440 kts | 170° |
| 2026-04-15 08:06 | 48.21314 | 0.76032 | 39178 ft | 439 kts | 170° |
| 2026-04-15 08:07 | 48.15401 | 0.78351 | 39186 ft | 439 kts | 170° |
| 2026-04-15 08:07 | 48.09533 | 0.80648 | 39196 ft | 439 kts | 170° |
| 2026-04-15 08:08 | 48.03623 | 0.82962 | 39191 ft | 439 kts | 170° |
| 2026-04-15 08:08 | 47.97704 | 0.85276 | 39177 ft | 440 kts | 170° |
| 2026-04-15 08:09 | 47.91772 | 0.87590 | 39201 ft | 441 kts | 170° |
| 2026-04-15 08:09 | 47.85818 | 0.89906 | 39203 ft | 443 kts | 170° |
| 2026-04-15 08:10 | 47.79833 | 0.92228 | 39187 ft | 446 kts | 170° |
| 2026-04-15 08:10 | 47.73813 | 0.94557 | 39195 ft | 448 kts | 169° |
| 2026-04-15 08:11 | 47.67767 | 0.96891 | 39204 ft | 450 kts | 169° |
| 2026-04-15 08:11 | 47.61696 | 0.99231 | 39203 ft | 452 kts | 169° |
| 2026-04-15 08:12 | 47.55600 | 1.01575 | 39189 ft | 453 kts | 169° |
| 2026-04-15 08:12 | 47.49491 | 1.03919 | 39206 ft | 454 kts | 169° |
| 2026-04-15 08:13 | 47.43404 | 1.06143 | 39204 ft | 452 kts | 175° |
| 2026-04-15 08:13 | 47.37210 | 1.06470 | 39200 ft | 444 kts | 186° |
| 2026-04-15 08:14 | 47.31037 | 1.06215 | 39200 ft | 444 kts | 186° |
| 2026-04-15 08:14 | 47.24865 | 1.06020 | 39207 ft | 444 kts | 185° |
| 2026-04-15 08:15 | 47.18693 | 1.05871 | 39212 ft | 443 kts | 185° |
| 2026-04-15 08:15 | 47.12525 | 1.05731 | 39213 ft | 443 kts | 185° |
| 2026-04-15 08:16 | 47.06361 | 1.05588 | 39213 ft | 443 kts | 185° |
| 2026-04-15 08:16 | 47.00196 | 1.05427 | 39212 ft | 443 kts | 186° |
| 2026-04-15 08:17 | 46.94038 | 1.05161 | 39209 ft | 443 kts | 186° |
| 2026-04-15 08:17 | 46.87881 | 1.04879 | 39222 ft | 443 kts | 186° |
| 2026-04-15 08:18 | 46.81721 | 1.04608 | 39216 ft | 443 kts | 186° |
| 2026-04-15 08:18 | 46.75555 | 1.04346 | 39221 ft | 444 kts | 186° |
| 2026-04-15 08:19 | 46.70426 | 1.04128 | 39219 ft | 444 kts | 186° |
| 2026-04-15 08:19 | 46.64242 | 1.03867 | 39215 ft | 445 kts | 186° |
| 2026-04-15 08:20 | 46.58052 | 1.03605 | 39224 ft | 445 kts | 186° |
| 2026-04-15 08:20 | 46.51861 | 1.03344 | 39219 ft | 445 kts | 186° |
| 2026-04-15 08:21 | 46.45653 | 1.03210 | 39226 ft | 446 kts | 185° |
| 2026-04-15 08:21 | 46.39440 | 1.03172 | 39226 ft | 447 kts | 185° |
| 2026-04-15 08:22 | 46.33214 | 1.03124 | 39213 ft | 448 kts | 185° |
| 2026-04-15 08:22 | 46.26981 | 1.03060 | 39229 ft | 448 kts | 185° |
| 2026-04-15 08:23 | 46.20736 | 1.02990 | 39226 ft | 449 kts | 185° |
| 2026-04-15 08:23 | 46.14481 | 1.02920 | 39220 ft | 450 kts | 185° |
| 2026-04-15 08:24 | 46.08217 | 1.02851 | 39242 ft | 451 kts | 185° |
| 2026-04-15 08:24 | 46.01940 | 1.02781 | 39238 ft | 452 kts | 185° |
| 2026-04-15 08:25 | 45.95649 | 1.02712 | 39230 ft | 452 kts | 185° |
| 2026-04-15 08:25 | 45.89393 | 1.02644 | 39241 ft | 453 kts | 185° |
| 2026-04-15 08:26 | 45.83087 | 1.02576 | 39242 ft | 454 kts | 184° |
| 2026-04-15 08:26 | 45.76777 | 1.03578 | 39242 ft | 460 kts | 173° |
| 2026-04-15 08:27 | 45.70486 | 1.05315 | 39242 ft | 460 kts | 173° |
| 2026-04-15 08:27 | 45.64189 | 1.07022 | 39243 ft | 461 kts | 173° |
| 2026-04-15 08:28 | 45.57881 | 1.08660 | 39234 ft | 461 kts | 174° |
| 2026-04-15 08:28 | 45.51568 | 1.10271 | 39241 ft | 461 kts | 174° |
| 2026-04-15 08:29 | 45.45250 | 1.11879 | 39235 ft | 461 kts | 174° |
| 2026-04-15 08:29 | 45.38925 | 1.13488 | 39242 ft | 462 kts | 174° |
| 2026-04-15 08:30 | 45.32592 | 1.15097 | 39234 ft | 462 kts | 173° |
| 2026-04-15 08:30 | 45.26255 | 1.16704 | 39235 ft | 463 kts | 173° |
| 2026-04-15 08:31 | 45.19907 | 1.18309 | 39246 ft | 464 kts | 173° |
| 2026-04-15 08:31 | 45.13531 | 1.18808 | 39236 ft | 456 kts | 191° |
| 2026-04-15 08:32 | 45.07313 | 1.17252 | 39238 ft | 454 kts | 195° |
| 2026-04-15 08:32 | 45.01093 | 1.15558 | 39247 ft | 456 kts | 195° |
| 2026-04-15 08:33 | 44.94841 | 1.13910 | 39239 ft | 458 kts | 195° |
| 2026-04-15 08:33 | 44.88570 | 1.12301 | 39236 ft | 459 kts | 194° |
| 2026-04-15 08:34 | 44.82324 | 1.10712 | 39231 ft | 459 kts | 194° |
| 2026-04-15 08:34 | 44.76043 | 1.09117 | 39233 ft | 459 kts | 194° |
| 2026-04-15 08:35 | 44.69768 | 1.07527 | 39233 ft | 458 kts | 194° |
| 2026-04-15 08:35 | 44.63507 | 1.05942 | 39239 ft | 456 kts | 194° |
| 2026-04-15 08:36 | 44.57270 | 1.04366 | 39240 ft | 455 kts | 194° |
| 2026-04-15 08:36 | 44.51050 | 1.02798 | 39242 ft | 454 kts | 194° |
| 2026-04-15 08:37 | 44.44847 | 1.01237 | 39242 ft | 452 kts | 194° |
| 2026-04-15 08:37 | 44.38653 | 0.99682 | 39230 ft | 452 kts | 194° |
| 2026-04-15 08:38 | 44.32462 | 0.98131 | 39249 ft | 452 kts | 194° |
| 2026-04-15 08:38 | 44.26261 | 0.96580 | 39249 ft | 453 kts | 194° |
| 2026-04-15 08:39 | 44.20045 | 0.95030 | 39238 ft | 455 kts | 194° |
| 2026-04-15 08:39 | 44.13806 | 0.93477 | 39256 ft | 456 kts | 194° |
| 2026-04-15 08:40 | 44.07543 | 0.91921 | 39257 ft | 458 kts | 194° |
| 2026-04-15 08:40 | 44.01256 | 0.90363 | 39252 ft | 460 kts | 194° |
| 2026-04-15 08:41 | 43.94947 | 0.88803 | 39258 ft | 461 kts | 194° |
| 2026-04-15 08:41 | 43.88614 | 0.87240 | 39252 ft | 463 kts | 194° |
| 2026-04-15 08:42 | 43.82278 | 0.85582 | 39239 ft | 463 kts | 195° |
| 2026-04-15 08:42 | 43.75941 | 0.83864 | 39243 ft | 464 kts | 195° |
| 2026-04-15 08:43 | 43.69596 | 0.82154 | 39247 ft | 465 kts | 195° |
| 2026-04-15 08:43 | 43.63286 | 0.80468 | 39243 ft | 465 kts | 195° |
| 2026-04-15 08:44 | 43.56886 | 0.78767 | 39230 ft | 465 kts | 195° |
| 2026-04-15 08:44 | 43.50577 | 0.77095 | 39241 ft | 465 kts | 195° |
| 2026-04-15 08:45 | 43.44236 | 0.75417 | 39243 ft | 462 kts | 195° |
| 2026-04-15 08:45 | 43.37961 | 0.73762 | 39234 ft | 458 kts | 195° |
| 2026-04-15 08:46 | 43.31694 | 0.72108 | 39242 ft | 459 kts | 195° |
| 2026-04-15 08:46 | 43.25413 | 0.70454 | 39236 ft | 460 kts | 195° |
| 2026-04-15 08:47 | 43.19112 | 0.68800 | 39225 ft | 462 kts | 195° |
| 2026-04-15 08:47 | 43.12796 | 0.67145 | 39236 ft | 463 kts | 195° |
| 2026-04-15 08:48 | 43.06463 | 0.65490 | 39232 ft | 464 kts | 195° |
| 2026-04-15 08:48 | 43.00117 | 0.63835 | 39218 ft | 465 kts | 195° |
| 2026-04-15 08:49 | 42.93756 | 0.62179 | 39212 ft | 466 kts | 195° |
| 2026-04-15 08:49 | 42.87388 | 0.60525 | 39210 ft | 466 kts | 195° |
| 2026-04-15 08:50 | 42.81035 | 0.58886 | 39192 ft | 463 kts | 195° |
| 2026-04-15 08:50 | 42.74703 | 0.57240 | 39190 ft | 464 kts | 195° |
| 2026-04-15 08:51 | 42.68417 | 0.55313 | 39182 ft | 460 kts | 204° |
| 2026-04-15 08:51 | 42.62649 | 0.51743 | 39197 ft | 455 kts | 211° |
| 2026-04-15 08:52 | 42.56948 | 0.47983 | 39193 ft | 455 kts | 210° |
| 2026-04-15 08:52 | 42.51218 | 0.44273 | 39181 ft | 457 kts | 210° |
| 2026-04-15 08:53 | 42.45459 | 0.40596 | 39191 ft | 458 kts | 210° |
| 2026-04-15 08:53 | 42.39681 | 0.36922 | 39163 ft | 458 kts | 210° |
| 2026-04-15 08:54 | 42.33912 | 0.33260 | 39169 ft | 458 kts | 210° |
| 2026-04-15 08:54 | 42.28191 | 0.29635 | 39163 ft | 457 kts | 210° |
| 2026-04-15 08:55 | 42.22446 | 0.26001 | 39175 ft | 455 kts | 210° |
| 2026-04-15 08:55 | 42.16678 | 0.22359 | 39168 ft | 454 kts | 210° |
| 2026-04-15 08:56 | 42.11004 | 0.18783 | 39173 ft | 452 kts | 210° |
| 2026-04-15 08:56 | 42.05157 | 0.15626 | 39174 ft | 457 kts | 198° |
| 2026-04-15 08:57 | 41.98817 | 0.14448 | 39190 ft | 461 kts | 189° |
| 2026-04-15 08:57 | 41.92422 | 0.13596 | 39194 ft | 462 kts | 189° |
| 2026-04-15 08:58 | 41.86019 | 0.12698 | 39199 ft | 463 kts | 190° |
| 2026-04-15 08:58 | 41.76376 | 0.11268 | 39192 ft | 466 kts | 190° |
| 2026-04-15 08:59 | 41.69911 | 0.10302 | 39201 ft | 468 kts | 190° |
| 2026-04-15 08:59 | 41.63421 | 0.09335 | 39206 ft | 470 kts | 190° |
| 2026-04-15 09:00 | 41.56901 | 0.08368 | 39199 ft | 472 kts | 190° |
| 2026-04-15 09:00 | 41.50359 | 0.07400 | 39193 ft | 474 kts | 190° |
| 2026-04-15 09:01 | 41.43800 | 0.06432 | 39198 ft | 475 kts | 190° |
| 2026-04-15 09:01 | 41.37231 | 0.05464 | 39191 ft | 475 kts | 190° |
| 2026-04-15 09:02 | 41.30658 | 0.04497 | 39185 ft | 475 kts | 189° |
| 2026-04-15 09:02 | 41.24095 | 0.03533 | 39197 ft | 474 kts | 189° |
| 2026-04-15 09:03 | 41.17533 | 0.02571 | 39192 ft | 474 kts | 189° |
| 2026-04-15 09:03 | 41.10980 | 0.01613 | 39196 ft | 473 kts | 189° |
| 2026-04-15 09:04 | 41.04483 | 0.00664 | 39200 ft | 473 kts | 189° |
| 2026-04-15 09:04 | 40.97944 | -0.00290 | 39197 ft | 472 kts | 189° |
| 2026-04-15 09:05 | 40.91416 | -0.01240 | 39199 ft | 471 kts | 189° |
| 2026-04-15 09:05 | 40.84905 | -0.02186 | 39190 ft | 470 kts | 189° |
| 2026-04-15 09:06 | 40.78404 | -0.03128 | 39193 ft | 469 kts | 189° |
| 2026-04-15 09:06 | 40.71915 | -0.04068 | 39205 ft | 469 kts | 189° |
| 2026-04-15 09:07 | 40.65430 | -0.05005 | 39194 ft | 469 kts | 189° |
| 2026-04-15 09:07 | 40.58947 | -0.05940 | 39213 ft | 468 kts | 189° |
| 2026-04-15 09:08 | 40.53626 | -0.07066 | 39214 ft | 463 kts | 200° |
| 2026-04-15 09:08 | 40.47481 | -0.09563 | 39231 ft | 462 kts | 202° |
| 2026-04-15 09:09 | 40.41347 | -0.12106 | 39251 ft | 463 kts | 201° |
| 2026-04-15 09:09 | 40.35179 | -0.14566 | 39264 ft | 464 kts | 201° |
| 2026-04-15 09:10 | 40.28997 | -0.16998 | 39263 ft | 464 kts | 201° |
| 2026-04-15 09:10 | 40.22808 | -0.19434 | 39249 ft | 465 kts | 201° |
| 2026-04-15 09:11 | 40.16605 | -0.21871 | 39254 ft | 466 kts | 201° |
| 2026-04-15 09:11 | 40.10385 | -0.24310 | 39229 ft | 467 kts | 201° |
| 2026-04-15 09:12 | 40.04149 | -0.26753 | 39202 ft | 468 kts | 201° |
| 2026-04-15 09:12 | 39.97894 | -0.29196 | 39199 ft | 470 kts | 200° |
| 2026-04-15 09:13 | 39.91657 | -0.31627 | 38965 ft | 476 kts | 200° |
| 2026-04-15 09:13 | 39.88472 | -0.32867 | 38434 ft | 478 kts | 200° |
| 2026-04-15 09:13 | 39.85292 | -0.34102 | 37872 ft | 475 kts | 200° |
| 2026-04-15 09:14 | 39.82132 | -0.35328 | 37332 ft | 473 kts | 200° |
| 2026-04-15 09:14 | 39.78981 | -0.36550 | 36754 ft | 472 kts | 200° |
| 2026-04-15 09:14 | 39.75836 | -0.37770 | 36220 ft | 471 kts | 200° |
| 2026-04-15 09:14 | 39.72698 | -0.38986 | 35634 ft | 471 kts | 200° |
| 2026-04-15 09:15 | 39.69553 | -0.40205 | 35037 ft | 472 kts | 200° |
| 2026-04-15 09:15 | 39.66402 | -0.41425 | 34427 ft | 473 kts | 200° |
| 2026-04-15 09:15 | 39.63239 | -0.42648 | 33707 ft | 476 kts | 200° |
| 2026-04-15 09:15 | 39.60063 | -0.43875 | 33022 ft | 476 kts | 200° |
| 2026-04-15 09:16 | 39.56886 | -0.45100 | 32349 ft | 477 kts | 200° |
| 2026-04-15 09:16 | 39.53701 | -0.46328 | 31660 ft | 478 kts | 200° |
| 2026-04-15 09:16 | 39.50510 | -0.47554 | 30969 ft | 479 kts | 199° |
| 2026-04-15 09:16 | 39.47244 | -0.48504 | 30243 ft | 484 kts | 190° |
| 2026-04-15 09:17 | 39.43872 | -0.48854 | 29391 ft | 487 kts | 185° |
| 2026-04-15 09:17 | 39.40483 | -0.49064 | 28702 ft | 486 kts | 184° |
| 2026-04-15 09:17 | 39.37129 | -0.49245 | 28143 ft | 480 kts | 184° |
| 2026-04-15 09:17 | 39.33805 | -0.49432 | 27566 ft | 476 kts | 184° |
| 2026-04-15 09:18 | 39.30511 | -0.49633 | 27010 ft | 472 kts | 184° |
| 2026-04-15 09:18 | 39.27248 | -0.49850 | 26462 ft | 468 kts | 185° |
| 2026-04-15 09:18 | 39.24004 | -0.50076 | 25919 ft | 465 kts | 185° |
| 2026-04-15 09:18 | 39.20790 | -0.50308 | 25381 ft | 461 kts | 184° |
| 2026-04-15 09:19 | 39.17594 | -0.50540 | 24832 ft | 458 kts | 184° |
| 2026-04-15 09:19 | 39.14416 | -0.50772 | 24274 ft | 456 kts | 184° |
| 2026-04-15 09:19 | 39.11252 | -0.51002 | 23723 ft | 454 kts | 184° |
| 2026-04-15 09:19 | 39.08144 | -0.51227 | 23108 ft | 452 kts | 184° |
| 2026-04-15 09:20 | 39.05018 | -0.51452 | 22545 ft | 448 kts | 184° |
| 2026-04-15 09:20 | 39.01920 | -0.51675 | 21998 ft | 444 kts | 184° |
| 2026-04-15 09:20 | 38.98846 | -0.51895 | 21470 ft | 440 kts | 184° |
| 2026-04-15 09:20 | 38.95802 | -0.52113 | 20946 ft | 437 kts | 184° |
| 2026-04-15 09:21 | 38.92782 | -0.52329 | 20425 ft | 433 kts | 184° |
| 2026-04-15 09:21 | 38.89784 | -0.52544 | 19908 ft | 429 kts | 184° |
| 2026-04-15 09:21 | 38.86814 | -0.52756 | 19395 ft | 426 kts | 184° |
| 2026-04-15 09:21 | 38.83864 | -0.52967 | 18865 ft | 424 kts | 184° |
| 2026-04-15 09:22 | 38.80925 | -0.53177 | 18309 ft | 422 kts | 184° |
| 2026-04-15 09:22 | 38.78007 | -0.53386 | 17739 ft | 419 kts | 184° |
| 2026-04-15 09:22 | 38.75114 | -0.53592 | 17195 ft | 415 kts | 184° |
| 2026-04-15 09:22 | 38.72243 | -0.53793 | 16678 ft | 411 kts | 184° |
| 2026-04-15 09:23 | 38.69401 | -0.53992 | 16157 ft | 407 kts | 184° |
| 2026-04-15 09:23 | 38.66590 | -0.54191 | 15633 ft | 403 kts | 184° |
| 2026-04-15 09:23 | 38.63797 | -0.54389 | 15116 ft | 400 kts | 184° |
| 2026-04-15 09:23 | 38.61025 | -0.54586 | 14636 ft | 397 kts | 184° |
| 2026-04-15 09:24 | 38.58275 | -0.54781 | 14131 ft | 395 kts | 184° |
| 2026-04-15 09:24 | 38.55541 | -0.54975 | 13595 ft | 392 kts | 183° |
| 2026-04-15 09:24 | 38.52825 | -0.55168 | 13067 ft | 389 kts | 184° |
| 2026-04-15 09:24 | 38.50131 | -0.55360 | 12568 ft | 386 kts | 183° |
| 2026-04-15 09:25 | 38.47462 | -0.55549 | 12077 ft | 382 kts | 183° |
| 2026-04-15 09:25 | 38.44820 | -0.55736 | 11584 ft | 379 kts | 183° |
| 2026-04-15 09:25 | 38.42195 | -0.55924 | 11094 ft | 376 kts | 183° |
| 2026-04-15 09:25 | 38.39622 | -0.56097 | 10911 ft | 364 kts | 183° |
| 2026-04-15 09:26 | 38.37136 | -0.56258 | 10746 ft | 352 kts | 183° |
| 2026-04-15 09:26 | 38.34724 | -0.56410 | 10593 ft | 342 kts | 183° |
| 2026-04-15 09:26 | 38.32386 | -0.56556 | 10451 ft | 331 kts | 183° |
| 2026-04-15 09:26 | 38.30118 | -0.56696 | 10306 ft | 322 kts | 183° |
| 2026-04-15 09:27 | 38.27882 | -0.56833 | 10152 ft | 319 kts | 183° |
| 2026-04-15 09:27 | 38.25709 | -0.56992 | 9875 ft | 314 kts | 186° |
| 2026-04-15 09:27 | 38.23556 | -0.57439 | 9493 ft | 312 kts | 201° |
| 2026-04-15 09:27 | 38.21792 | -0.58940 | 9177 ft | 304 kts | 228° |
| 2026-04-15 09:28 | 38.20361 | -0.60895 | 8864 ft | 301 kts | 230° |
| 2026-04-15 09:28 | 38.18955 | -0.62835 | 8669 ft | 294 kts | 229° |
| 2026-04-15 09:28 | 38.17571 | -0.64714 | 8473 ft | 289 kts | 229° |
| 2026-04-15 09:28 | 38.16194 | -0.66561 | 8163 ft | 288 kts | 229° |
| 2026-04-15 09:29 | 38.14817 | -0.68396 | 7856 ft | 286 kts | 229° |
| 2026-04-15 09:29 | 38.13434 | -0.70202 | 7581 ft | 285 kts | 227° |
| 2026-04-15 09:29 | 38.12040 | -0.71975 | 7293 ft | 283 kts | 227° |
| 2026-04-15 09:29 | 38.10652 | -0.73734 | 7007 ft | 281 kts | 227° |
| 2026-04-15 09:30 | 38.09290 | -0.75460 | 6737 ft | 279 kts | 227° |
| 2026-04-15 09:30 | 38.07917 | -0.77195 | 6379 ft | 278 kts | 228° |
| 2026-04-15 09:30 | 38.06540 | -0.78933 | 5904 ft | 280 kts | 228° |
| 2026-04-15 09:30 | 38.05166 | -0.80668 | 5537 ft | 277 kts | 228° |
| 2026-04-15 09:31 | 38.03806 | -0.82386 | 5144 ft | 275 kts | 227° |
| 2026-04-15 09:31 | 38.02459 | -0.84086 | 4775 ft | 272 kts | 227° |
| 2026-04-15 09:31 | 38.01124 | -0.85771 | 4369 ft | 270 kts | 227° |
| 2026-04-15 09:31 | 37.99819 | -0.87417 | 4218 ft | 258 kts | 227° |
| 2026-04-15 09:32 | 37.98570 | -0.88987 | 4097 ft | 247 kts | 227° |
| 2026-04-15 09:32 | 37.97377 | -0.90487 | 4091 ft | 236 kts | 227° |
| 2026-04-15 09:32 | 37.96245 | -0.91908 | 4124 ft | 222 kts | 227° |
| 2026-04-15 09:32 | 37.95170 | -0.93270 | 4103 ft | 216 kts | 228° |
| 2026-04-15 09:33 | 37.94136 | -0.94617 | 3933 ft | 211 kts | 230° |
| 2026-04-15 09:33 | 37.93139 | -0.95950 | 3802 ft | 201 kts | 229° |
| 2026-04-15 09:33 | 37.92180 | -0.97196 | 3674 ft | 195 kts | 229° |
| 2026-04-15 09:33 | 37.91220 | -0.98435 | 3411 ft | 198 kts | 228° |
| 2026-04-15 09:34 | 37.90256 | -0.99676 | 3136 ft | 196 kts | 228° |
| 2026-04-15 09:34 | 37.89314 | -1.00889 | 2881 ft | 191 kts | 228° |
| 2026-04-15 09:34 | 37.88394 | -1.02068 | 2640 ft | 186 kts | 228° |
| 2026-04-15 09:34 | 37.87508 | -1.03208 | 2396 ft | 176 kts | 228° |
| 2026-04-15 09:35 | 37.86683 | -1.04269 | 2191 ft | 162 kts | 228° |
| 2026-04-15 09:35 | 37.85904 | -1.05262 | 1982 ft | 158 kts | 227° |
| 2026-04-15 09:35 | 37.85126 | -1.06258 | 1719 ft | 159 kts | 228° |
| 2026-04-15 09:35 | 37.84363 | -1.07243 | 1513 ft | 156 kts | 227° |
| 2026-04-15 09:36 | 37.83607 | -1.08220 | 1303 ft | 155 kts | 228° |
| 2026-04-15 09:36 | 37.82847 | -1.09206 | 1115 ft | 156 kts | 226° |
| 2026-04-15 09:36 | 37.82084 | -1.10184 | 896 ft | 156 kts | 229° |
| 2026-04-15 09:36 | 37.81326 | -1.11166 | 690 ft | 156 kts | 228° |
| 2026-04-15 09:37 | 37.80613 | -1.12087 | 644 ft | 127 kts | 225° |
| 2026-04-15 09:37 | 37.80147 | -1.12690 | 644 ft | 65 kts | 226° |
| 2026-04-15 09:37 | 37.79930 | -1.13041 | 646 ft | 40 kts | 247° |
| 2026-04-15 09:37 | 37.79898 | -1.13239 | 650 ft | 15 kts | 290° |
| 2026-04-15 09:38 | 37.79966 | -1.13241 | 648 ft | 11 kts | 50° |
| 2026-04-15 09:38 | 37.80016 | -1.13165 | 647 ft | 12 kts | 43° |
| 2026-04-15 09:38 | 37.80092 | -1.13083 | 647 ft | 16 kts | 26° |
| 2026-04-15 09:38 | 37.80161 | -1.13139 | 646 ft | 13 kts | 314° |
| 2026-04-15 09:39 | 37.80243 | -1.13125 | 646 ft | 15 kts | 47° |
| 2026-04-15 09:39 | 37.80300 | -1.13126 | 646 ft | 8 kts | 316° |
| 2026-04-15 09:39 | 37.80323 | -1.13155 | 646 ft | 0 kts | 316° |